sensor_id;sensor_type;location;lat;lon;timestamp;P1;durP1;ratioP1;P2;durP2;ratioP2
24337;SDS011;12457;50.832;4.346;2022-11-20T00:01:48;86.75;;;42.63;;
24337;SDS011;12457;50.832;4.346;2022-11-20T00:04:14;88.65;;;47.13;;
24337;SDS011;12457;50.832;4.346;2022-11-20T00:06:40;88.35;;;44.20;;
24337;SDS011;12457;50.832;4.346;2022-11-20T00:09:05;86.70;;;42.08;;
24337;SDS011;12457;50.832;4.346;2022-11-20T00:11:31;82.47;;;42.63;;
24337;SDS011;12457;50.832;4.346;2022-11-20T00:13:59;80.40;;;43.10;;
24337;SDS011;12457;50.832;4.346;2022-11-20T00:16:26;81.68;;;43.13;;
24337;SDS011;12457;50.832;4.346;2022-11-20T00:18:53;86.10;;;41.88;;
24337;SDS011;12457;50.832;4.346;2022-11-20T00:21:20;78.07;;;42.70;;
24337;SDS011;12457;50.832;4.346;2022-11-20T00:23:48;80.65;;;41.25;;
24337;SDS011;12457;50.832;4.346;2022-11-20T00:26:15;83.43;;;42.58;;
24337;SDS011;12457;50.832;4.346;2022-11-20T00:28:42;77.32;;;41.05;;
24337;SDS011;12457;50.832;4.346;2022-11-20T00:33:38;82.63;;;42.15;;
24337;SDS011;12457;50.832;4.346;2022-11-20T00:36:05;82.68;;;42.22;;
24337;SDS011;12457;50.832;4.346;2022-11-20T00:38:33;80.47;;;41.22;;
24337;SDS011;12457;50.832;4.346;2022-11-20T00:41:00;94.05;;;42.25;;
24337;SDS011;12457;50.832;4.346;2022-11-20T00:43:27;79.35;;;41.15;;
24337;SDS011;12457;50.832;4.346;2022-11-20T00:46:00;78.30;;;42.78;;
24337;SDS011;12457;50.832;4.346;2022-11-20T00:48:27;77.73;;;41.27;;
24337;SDS011;12457;50.832;4.346;2022-11-20T00:50:53;83.22;;;42.30;;
24337;SDS011;12457;50.832;4.346;2022-11-20T00:53:18;84.40;;;42.45;;
24337;SDS011;12457;50.832;4.346;2022-11-20T00:56:07;85.03;;;43.33;;
24337;SDS011;12457;50.832;4.346;2022-11-20T00:58:32;85.25;;;42.17;;
24337;SDS011;12457;50.832;4.346;2022-11-20T01:01:00;78.85;;;40.17;;
24337;SDS011;12457;50.832;4.346;2022-11-20T01:03:31;77.97;;;41.67;;
24337;SDS011;12457;50.832;4.346;2022-11-20T01:06:01;82.68;;;40.67;;
24337;SDS011;12457;50.832;4.346;2022-11-20T01:08:35;75.68;;;41.50;;
24337;SDS011;12457;50.832;4.346;2022-11-20T01:11:01;76.45;;;42.08;;
24337;SDS011;12457;50.832;4.346;2022-11-20T01:13:29;79.45;;;43.42;;
24337;SDS011;12457;50.832;4.346;2022-11-20T01:18:49;71.75;;;42.00;;
24337;SDS011;12457;50.832;4.346;2022-11-20T01:21:21;75.35;;;41.92;;
24337;SDS011;12457;50.832;4.346;2022-11-20T01:23:49;77.05;;;41.78;;
24337;SDS011;12457;50.832;4.346;2022-11-20T01:26:16;77.82;;;41.55;;
24337;SDS011;12457;50.832;4.346;2022-11-20T01:28:43;78.22;;;42.63;;
24337;SDS011;12457;50.832;4.346;2022-11-20T01:31:10;84.50;;;45.13;;
24337;SDS011;12457;50.832;4.346;2022-11-20T01:33:38;82.07;;;42.30;;
24337;SDS011;12457;50.832;4.346;2022-11-20T01:36:05;80.85;;;40.38;;
24337;SDS011;12457;50.832;4.346;2022-11-20T01:38:32;82.78;;;43.72;;
24337;SDS011;12457;50.832;4.346;2022-11-20T01:40:58;85.38;;;43.90;;
24337;SDS011;12457;50.832;4.346;2022-11-20T01:43:24;93.45;;;44.00;;
24337;SDS011;12457;50.832;4.346;2022-11-20T01:48:53;81.88;;;42.72;;
24337;SDS011;12457;50.832;4.346;2022-11-20T01:53:59;98.55;;;45.92;;
24337;SDS011;12457;50.832;4.346;2022-11-20T01:56:28;82.10;;;45.22;;
24337;SDS011;12457;50.832;4.346;2022-11-20T01:58:59;90.78;;;46.63;;
24337;SDS011;12457;50.832;4.346;2022-11-20T02:01:26;106.88;;;49.05;;
24337;SDS011;12457;50.832;4.346;2022-11-20T02:03:52;102.90;;;46.72;;
24337;SDS011;12457;50.832;4.346;2022-11-20T02:06:28;98.03;;;46.95;;
24337;SDS011;12457;50.832;4.346;2022-11-20T02:08:55;104.10;;;47.55;;
24337;SDS011;12457;50.832;4.346;2022-11-20T02:11:21;96.05;;;48.17;;
24337;SDS011;12457;50.832;4.346;2022-11-20T02:13:47;93.97;;;46.67;;
24337;SDS011;12457;50.832;4.346;2022-11-20T02:18:55;98.00;;;44.33;;
24337;SDS011;12457;50.832;4.346;2022-11-20T02:21:34;86.43;;;42.08;;
24337;SDS011;12457;50.832;4.346;2022-11-20T02:24:03;90.78;;;42.80;;
24337;SDS011;12457;50.832;4.346;2022-11-20T02:26:46;87.45;;;42.78;;
24337;SDS011;12457;50.832;4.346;2022-11-20T02:29:39;92.40;;;43.17;;
24337;SDS011;12457;50.832;4.346;2022-11-20T02:32:35;84.55;;;42.45;;
24337;SDS011;12457;50.832;4.346;2022-11-20T02:37:49;92.93;;;43.60;;
24337;SDS011;12457;50.832;4.346;2022-11-20T02:40:17;89.55;;;42.03;;
24337;SDS011;12457;50.832;4.346;2022-11-20T02:42:43;94.18;;;43.50;;
24337;SDS011;12457;50.832;4.346;2022-11-20T02:45:09;99.55;;;44.65;;
24337;SDS011;12457;50.832;4.346;2022-11-20T02:47:35;97.75;;;43.67;;
24337;SDS011;12457;50.832;4.346;2022-11-20T02:50:01;101.68;;;43.03;;
24337;SDS011;12457;50.832;4.346;2022-11-20T02:52:26;105.78;;;45.38;;
24337;SDS011;12457;50.832;4.346;2022-11-20T02:54:52;96.00;;;42.53;;
24337;SDS011;12457;50.832;4.346;2022-11-20T02:57:17;98.68;;;43.13;;
24337;SDS011;12457;50.832;4.346;2022-11-20T02:59:43;92.97;;;43.15;;
24337;SDS011;12457;50.832;4.346;2022-11-20T03:02:09;92.68;;;42.97;;
24337;SDS011;12457;50.832;4.346;2022-11-20T03:04:34;96.13;;;42.63;;
24337;SDS011;12457;50.832;4.346;2022-11-20T03:07:00;86.82;;;41.40;;
24337;SDS011;12457;50.832;4.346;2022-11-20T03:09:25;92.57;;;41.63;;
24337;SDS011;12457;50.832;4.346;2022-11-20T03:11:51;92.28;;;39.35;;
24337;SDS011;12457;50.832;4.346;2022-11-20T03:14:17;83.07;;;40.00;;
24337;SDS011;12457;50.832;4.346;2022-11-20T03:16:42;84.45;;;39.47;;
24337;SDS011;12457;50.832;4.346;2022-11-20T03:19:08;83.57;;;39.20;;
24337;SDS011;12457;50.832;4.346;2022-11-20T03:21:33;80.85;;;38.10;;
24337;SDS011;12457;50.832;4.346;2022-11-20T03:24:00;82.82;;;38.40;;
24337;SDS011;12457;50.832;4.346;2022-11-20T03:26:27;77.38;;;37.53;;
24337;SDS011;12457;50.832;4.346;2022-11-20T03:28:53;81.25;;;38.53;;
24337;SDS011;12457;50.832;4.346;2022-11-20T03:31:24;75.57;;;37.15;;
24337;SDS011;12457;50.832;4.346;2022-11-20T03:33:55;78.65;;;38.20;;
24337;SDS011;12457;50.832;4.346;2022-11-20T03:36:21;81.53;;;38.22;;
24337;SDS011;12457;50.832;4.346;2022-11-20T03:38:47;81.03;;;37.15;;
24337;SDS011;12457;50.832;4.346;2022-11-20T03:41:14;81.55;;;38.63;;
24337;SDS011;12457;50.832;4.346;2022-11-20T03:43:51;75.32;;;36.03;;
24337;SDS011;12457;50.832;4.346;2022-11-20T03:46:18;75.07;;;36.58;;
24337;SDS011;12457;50.832;4.346;2022-11-20T03:48:44;73.68;;;35.65;;
24337;SDS011;12457;50.832;4.346;2022-11-20T03:51:20;80.68;;;36.53;;
24337;SDS011;12457;50.832;4.346;2022-11-20T03:53:47;79.40;;;37.35;;
24337;SDS011;12457;50.832;4.346;2022-11-20T03:56:15;74.57;;;34.28;;
24337;SDS011;12457;50.832;4.346;2022-11-20T03:58:42;70.20;;;34.15;;
24337;SDS011;12457;50.832;4.346;2022-11-20T04:01:09;79.90;;;33.63;;
24337;SDS011;12457;50.832;4.346;2022-11-20T04:03:45;69.50;;;34.88;;
24337;SDS011;12457;50.832;4.346;2022-11-20T04:06:17;71.22;;;35.80;;
24337;SDS011;12457;50.832;4.346;2022-11-20T04:08:48;78.70;;;35.08;;
24337;SDS011;12457;50.832;4.346;2022-11-20T04:11:18;68.13;;;34.05;;
24337;SDS011;12457;50.832;4.346;2022-11-20T04:13:49;76.53;;;35.42;;
24337;SDS011;12457;50.832;4.346;2022-11-20T04:16:16;76.00;;;36.25;;
24337;SDS011;12457;50.832;4.346;2022-11-20T04:18:42;73.90;;;35.85;;
24337;SDS011;12457;50.832;4.346;2022-11-20T04:21:08;78.93;;;36.33;;
24337;SDS011;12457;50.832;4.346;2022-11-20T04:23:34;76.68;;;33.85;;
24337;SDS011;12457;50.832;4.346;2022-11-20T04:26:07;78.72;;;36.13;;
24337;SDS011;12457;50.832;4.346;2022-11-20T04:28:34;79.03;;;36.15;;
24337;SDS011;12457;50.832;4.346;2022-11-20T04:33:30;78.10;;;36.22;;
24337;SDS011;12457;50.832;4.346;2022-11-20T04:35:59;75.78;;;34.47;;
24337;SDS011;12457;50.832;4.346;2022-11-20T04:38:32;81.43;;;36.35;;
24337;SDS011;12457;50.832;4.346;2022-11-20T04:40:59;79.68;;;37.40;;
24337;SDS011;12457;50.832;4.346;2022-11-20T04:43:26;79.50;;;37.20;;
24337;SDS011;12457;50.832;4.346;2022-11-20T04:45:52;74.72;;;35.00;;
24337;SDS011;12457;50.832;4.346;2022-11-20T04:48:19;80.03;;;36.20;;
24337;SDS011;12457;50.832;4.346;2022-11-20T04:50:44;91.30;;;39.28;;
24337;SDS011;12457;50.832;4.346;2022-11-20T04:53:10;89.10;;;38.72;;
24337;SDS011;12457;50.832;4.346;2022-11-20T04:55:35;88.28;;;39.53;;
24337;SDS011;12457;50.832;4.346;2022-11-20T04:58:01;88.45;;;37.55;;
24337;SDS011;12457;50.832;4.346;2022-11-20T05:00:27;89.93;;;38.35;;
24337;SDS011;12457;50.832;4.346;2022-11-20T05:02:52;91.00;;;38.78;;
24337;SDS011;12457;50.832;4.346;2022-11-20T05:05:18;81.50;;;38.50;;
24337;SDS011;12457;50.832;4.346;2022-11-20T05:07:44;90.45;;;37.92;;
24337;SDS011;12457;50.832;4.346;2022-11-20T05:10:09;82.05;;;36.78;;
24337;SDS011;12457;50.832;4.346;2022-11-20T05:12:35;87.03;;;37.65;;
24337;SDS011;12457;50.832;4.346;2022-11-20T05:15:00;84.45;;;37.85;;
24337;SDS011;12457;50.832;4.346;2022-11-20T05:17:26;84.53;;;37.83;;
24337;SDS011;12457;50.832;4.346;2022-11-20T05:19:51;94.30;;;38.67;;
24337;SDS011;12457;50.832;4.346;2022-11-20T05:22:17;89.75;;;38.83;;
24337;SDS011;12457;50.832;4.346;2022-11-20T05:24:43;93.10;;;38.72;;
24337;SDS011;12457;50.832;4.346;2022-11-20T05:27:08;90.18;;;38.75;;
24337;SDS011;12457;50.832;4.346;2022-11-20T05:29:34;96.32;;;40.08;;
24337;SDS011;12457;50.832;4.346;2022-11-20T05:31:59;88.38;;;39.40;;
24337;SDS011;12457;50.832;4.346;2022-11-20T05:34:25;90.43;;;39.35;;
24337;SDS011;12457;50.832;4.346;2022-11-20T05:36:51;97.18;;;40.20;;
24337;SDS011;12457;50.832;4.346;2022-11-20T05:39:16;88.47;;;38.78;;
24337;SDS011;12457;50.832;4.346;2022-11-20T05:41:42;94.97;;;40.28;;
24337;SDS011;12457;50.832;4.346;2022-11-20T05:44:09;89.60;;;38.83;;
24337;SDS011;12457;50.832;4.346;2022-11-20T05:46:36;90.38;;;37.35;;
24337;SDS011;12457;50.832;4.346;2022-11-20T05:49:01;87.43;;;38.95;;
24337;SDS011;12457;50.832;4.346;2022-11-20T05:51:27;94.25;;;40.08;;
24337;SDS011;12457;50.832;4.346;2022-11-20T05:53:53;89.75;;;37.75;;
24337;SDS011;12457;50.832;4.346;2022-11-20T05:56:21;96.03;;;38.47;;
24337;SDS011;12457;50.832;4.346;2022-11-20T05:58:47;90.70;;;39.75;;
24337;SDS011;12457;50.832;4.346;2022-11-20T06:01:14;92.55;;;38.67;;
24337;SDS011;12457;50.832;4.346;2022-11-20T06:03:44;96.35;;;40.05;;
24337;SDS011;12457;50.832;4.346;2022-11-20T06:06:12;93.50;;;39.08;;
24337;SDS011;12457;50.832;4.346;2022-11-20T06:08:41;98.75;;;38.92;;
24337;SDS011;12457;50.832;4.346;2022-11-20T06:11:09;91.05;;;39.83;;
24337;SDS011;12457;50.832;4.346;2022-11-20T06:13:35;105.40;;;39.42;;
24337;SDS011;12457;50.832;4.346;2022-11-20T06:16:02;94.95;;;37.90;;
24337;SDS011;12457;50.832;4.346;2022-11-20T06:18:28;96.13;;;40.83;;
24337;SDS011;12457;50.832;4.346;2022-11-20T06:21:01;97.22;;;37.53;;
24337;SDS011;12457;50.832;4.346;2022-11-20T06:23:30;95.72;;;39.33;;
24337;SDS011;12457;50.832;4.346;2022-11-20T06:25:58;95.68;;;37.88;;
24337;SDS011;12457;50.832;4.346;2022-11-20T06:28:33;95.78;;;39.75;;
24337;SDS011;12457;50.832;4.346;2022-11-20T06:30:59;90.82;;;39.03;;
24337;SDS011;12457;50.832;4.346;2022-11-20T06:33:25;91.93;;;38.38;;
24337;SDS011;12457;50.832;4.346;2022-11-20T06:35:51;91.88;;;40.55;;
24337;SDS011;12457;50.832;4.346;2022-11-20T06:38:17;88.45;;;38.42;;
24337;SDS011;12457;50.832;4.346;2022-11-20T06:40:42;92.55;;;38.63;;
24337;SDS011;12457;50.832;4.346;2022-11-20T06:43:11;91.30;;;38.35;;
24337;SDS011;12457;50.832;4.346;2022-11-20T06:45:37;100.05;;;39.33;;
24337;SDS011;12457;50.832;4.346;2022-11-20T06:48:02;91.07;;;38.03;;
24337;SDS011;12457;50.832;4.346;2022-11-20T06:50:29;96.78;;;37.72;;
24337;SDS011;12457;50.832;4.346;2022-11-20T06:52:54;89.80;;;37.03;;
24337;SDS011;12457;50.832;4.346;2022-11-20T06:55:20;94.80;;;37.58;;
24337;SDS011;12457;50.832;4.346;2022-11-20T06:57:46;87.90;;;38.03;;
24337;SDS011;12457;50.832;4.346;2022-11-20T07:00:11;91.78;;;39.42;;
24337;SDS011;12457;50.832;4.346;2022-11-20T07:02:38;85.07;;;36.90;;
24337;SDS011;12457;50.832;4.346;2022-11-20T07:05:03;83.20;;;38.28;;
24337;SDS011;12457;50.832;4.346;2022-11-20T07:07:29;89.72;;;37.47;;
24337;SDS011;12457;50.832;4.346;2022-11-20T07:09:55;83.95;;;36.55;;
24337;SDS011;12457;50.832;4.346;2022-11-20T07:12:20;84.97;;;38.35;;
24337;SDS011;12457;50.832;4.346;2022-11-20T07:14:46;85.93;;;37.67;;
24337;SDS011;12457;50.832;4.346;2022-11-20T07:17:12;81.25;;;35.67;;
24337;SDS011;12457;50.832;4.346;2022-11-20T07:19:37;78.72;;;35.10;;
24337;SDS011;12457;50.832;4.346;2022-11-20T07:22:03;79.32;;;35.28;;
24337;SDS011;12457;50.832;4.346;2022-11-20T07:24:29;77.32;;;34.42;;
24337;SDS011;12457;50.832;4.346;2022-11-20T07:26:55;77.40;;;35.25;;
24337;SDS011;12457;50.832;4.346;2022-11-20T07:29:20;73.72;;;33.85;;
24337;SDS011;12457;50.832;4.346;2022-11-20T07:31:46;79.50;;;34.38;;
24337;SDS011;12457;50.832;4.346;2022-11-20T07:34:11;81.00;;;34.28;;
24337;SDS011;12457;50.832;4.346;2022-11-20T07:36:37;67.85;;;32.42;;
24337;SDS011;12457;50.832;4.346;2022-11-20T07:39:02;71.43;;;33.78;;
24337;SDS011;12457;50.832;4.346;2022-11-20T07:41:28;86.95;;;39.08;;
24337;SDS011;12457;50.832;4.346;2022-11-20T07:43:54;72.90;;;33.42;;
24337;SDS011;12457;50.832;4.346;2022-11-20T07:46:19;86.28;;;34.33;;
24337;SDS011;12457;50.832;4.346;2022-11-20T07:48:45;85.13;;;34.78;;
24337;SDS011;12457;50.832;4.346;2022-11-20T07:51:10;83.70;;;34.35;;
24337;SDS011;12457;50.832;4.346;2022-11-20T07:53:36;85.60;;;32.95;;
24337;SDS011;12457;50.832;4.346;2022-11-20T07:56:02;79.30;;;33.95;;
24337;SDS011;12457;50.832;4.346;2022-11-20T07:58:28;84.03;;;35.97;;
24337;SDS011;12457;50.832;4.346;2022-11-20T08:00:55;83.03;;;34.88;;
24337;SDS011;12457;50.832;4.346;2022-11-20T08:03:21;76.30;;;33.38;;
24337;SDS011;12457;50.832;4.346;2022-11-20T08:05:46;76.35;;;33.95;;
24337;SDS011;12457;50.832;4.346;2022-11-20T08:08:12;84.38;;;38.33;;
24337;SDS011;12457;50.832;4.346;2022-11-20T08:10:37;72.25;;;33.10;;
24337;SDS011;12457;50.832;4.346;2022-11-20T08:13:03;73.68;;;31.63;;
24337;SDS011;12457;50.832;4.346;2022-11-20T08:15:48;76.87;;;32.07;;
24337;SDS011;12457;50.832;4.346;2022-11-20T08:18:15;80.18;;;35.10;;
24337;SDS011;12457;50.832;4.346;2022-11-20T08:20:42;75.32;;;32.88;;
24337;SDS011;12457;50.832;4.346;2022-11-20T08:23:08;71.78;;;30.80;;
24337;SDS011;12457;50.832;4.346;2022-11-20T08:25:34;69.80;;;29.55;;
24337;SDS011;12457;50.832;4.346;2022-11-20T08:28:05;74.20;;;30.45;;
24337;SDS011;12457;50.832;4.346;2022-11-20T08:30:32;69.80;;;30.50;;
24337;SDS011;12457;50.832;4.346;2022-11-20T08:33:03;82.07;;;34.88;;
24337;SDS011;12457;50.832;4.346;2022-11-20T08:35:34;70.15;;;32.10;;
24337;SDS011;12457;50.832;4.346;2022-11-20T08:38:01;79.72;;;32.63;;
24337;SDS011;12457;50.832;4.346;2022-11-20T08:40:27;75.28;;;31.48;;
24337;SDS011;12457;50.832;4.346;2022-11-20T08:42:52;73.53;;;31.35;;
24337;SDS011;12457;50.832;4.346;2022-11-20T08:45:18;77.32;;;31.42;;
24337;SDS011;12457;50.832;4.346;2022-11-20T08:47:44;74.78;;;31.60;;
24337;SDS011;12457;50.832;4.346;2022-11-20T08:50:11;72.82;;;32.33;;
24337;SDS011;12457;50.832;4.346;2022-11-20T08:52:38;70.70;;;30.10;;
24337;SDS011;12457;50.832;4.346;2022-11-20T08:55:04;70.82;;;32.13;;
24337;SDS011;12457;50.832;4.346;2022-11-20T08:57:32;77.70;;;33.65;;
24337;SDS011;12457;50.832;4.346;2022-11-20T08:59:58;79.95;;;36.88;;
24337;SDS011;12457;50.832;4.346;2022-11-20T09:02:24;84.35;;;41.83;;
24337;SDS011;12457;50.832;4.346;2022-11-20T09:04:50;86.72;;;40.35;;
24337;SDS011;12457;50.832;4.346;2022-11-20T09:07:15;89.57;;;42.53;;
24337;SDS011;12457;50.832;4.346;2022-11-20T09:09:41;108.85;;;49.72;;
24337;SDS011;12457;50.832;4.346;2022-11-20T09:12:07;92.32;;;47.42;;
24337;SDS011;12457;50.832;4.346;2022-11-20T09:14:32;71.00;;;38.08;;
24337;SDS011;12457;50.832;4.346;2022-11-20T09:16:58;101.78;;;52.70;;
24337;SDS011;12457;50.832;4.346;2022-11-20T09:19:24;93.15;;;46.17;;
24337;SDS011;12457;50.832;4.346;2022-11-20T09:21:50;107.97;;;58.63;;
24337;SDS011;12457;50.832;4.346;2022-11-20T09:24:16;83.43;;;40.65;;
24337;SDS011;12457;50.832;4.346;2022-11-20T09:26:42;73.70;;;36.63;;
24337;SDS011;12457;50.832;4.346;2022-11-20T09:29:08;71.85;;;32.75;;
24337;SDS011;12457;50.832;4.346;2022-11-20T09:31:34;60.90;;;32.70;;
24337;SDS011;12457;50.832;4.346;2022-11-20T09:33:59;60.35;;;33.92;;
24337;SDS011;12457;50.832;4.346;2022-11-20T09:36:25;73.00;;;36.25;;
24337;SDS011;12457;50.832;4.346;2022-11-20T09:38:51;62.25;;;34.22;;
24337;SDS011;12457;50.832;4.346;2022-11-20T09:44:13;76.25;;;34.70;;
24337;SDS011;12457;50.832;4.346;2022-11-20T09:46:46;86.70;;;46.38;;
24337;SDS011;12457;50.832;4.346;2022-11-20T09:49:27;82.85;;;47.47;;
24337;SDS011;12457;50.832;4.346;2022-11-20T09:54:43;70.60;;;38.90;;
24337;SDS011;12457;50.832;4.346;2022-11-20T09:57:10;60.42;;;33.88;;
24337;SDS011;12457;50.832;4.346;2022-11-20T09:59:42;82.55;;;46.60;;
24337;SDS011;12457;50.832;4.346;2022-11-20T10:04:53;55.30;;;30.58;;
24337;SDS011;12457;50.832;4.346;2022-11-20T10:07:22;46.80;;;29.92;;
24337;SDS011;12457;50.832;4.346;2022-11-20T10:09:53;67.32;;;39.15;;
24337;SDS011;12457;50.832;4.346;2022-11-20T10:15:04;56.25;;;30.80;;
24337;SDS011;12457;50.832;4.346;2022-11-20T10:26:16;65.75;;;37.50;;
24337;SDS011;12457;50.832;4.346;2022-11-20T10:31:28;65.05;;;35.42;;
24337;SDS011;12457;50.832;4.346;2022-11-20T10:33:58;60.63;;;33.75;;
24337;SDS011;12457;50.832;4.346;2022-11-20T10:36:33;38.33;;;18.92;;
24337;SDS011;12457;50.832;4.346;2022-11-20T10:39:05;32.33;;;18.38;;
24337;SDS011;12457;50.832;4.346;2022-11-20T10:41:40;43.28;;;21.85;;
24337;SDS011;12457;50.832;4.346;2022-11-20T10:44:12;34.40;;;19.30;;
24337;SDS011;12457;50.832;4.346;2022-11-20T10:47:04;42.15;;;19.02;;
24337;SDS011;12457;50.832;4.346;2022-11-20T10:49:31;32.65;;;19.38;;
24337;SDS011;12457;50.832;4.346;2022-11-20T10:52:18;48.17;;;27.25;;
24337;SDS011;12457;50.832;4.346;2022-11-20T10:55:01;39.17;;;19.75;;
24337;SDS011;12457;50.832;4.346;2022-11-20T11:00:34;30.55;;;16.33;;
24337;SDS011;12457;50.832;4.346;2022-11-20T11:02:59;29.95;;;16.10;;
24337;SDS011;12457;50.832;4.346;2022-11-20T11:08:15;30.10;;;13.25;;
24337;SDS011;12457;50.832;4.346;2022-11-20T11:10:46;30.92;;;15.25;;
24337;SDS011;12457;50.832;4.346;2022-11-20T11:13:25;21.73;;;8.00;;
24337;SDS011;12457;50.832;4.346;2022-11-20T11:15:52;28.67;;;12.50;;
24337;SDS011;12457;50.832;4.346;2022-11-20T11:18:37;21.80;;;11.73;;
24337;SDS011;12457;50.832;4.346;2022-11-20T11:21:03;33.63;;;16.67;;
24337;SDS011;12457;50.832;4.346;2022-11-20T11:26:04;21.25;;;11.18;;
24337;SDS011;12457;50.832;4.346;2022-11-20T11:28:31;20.00;;;11.20;;
24337;SDS011;12457;50.832;4.346;2022-11-20T11:30:58;44.08;;;25.98;;
24337;SDS011;12457;50.832;4.346;2022-11-20T11:33:24;33.92;;;18.52;;
24337;SDS011;12457;50.832;4.346;2022-11-20T11:35:53;17.70;;;10.60;;
24337;SDS011;12457;50.832;4.346;2022-11-20T11:41:02;26.15;;;11.85;;
24337;SDS011;12457;50.832;4.346;2022-11-20T11:43:31;20.48;;;9.27;;
24337;SDS011;12457;50.832;4.346;2022-11-20T11:48:59;31.20;;;18.50;;
24337;SDS011;12457;50.832;4.346;2022-11-20T11:51:28;31.83;;;17.25;;
24337;SDS011;12457;50.832;4.346;2022-11-20T11:54:11;35.80;;;16.23;;
24337;SDS011;12457;50.832;4.346;2022-11-20T11:56:41;41.75;;;23.65;;
24337;SDS011;12457;50.832;4.346;2022-11-20T11:59:09;40.60;;;22.40;;
24337;SDS011;12457;50.832;4.346;2022-11-20T12:01:47;41.38;;;25.95;;
24337;SDS011;12457;50.832;4.346;2022-11-20T12:04:34;37.72;;;23.05;;
24337;SDS011;12457;50.832;4.346;2022-11-20T12:07:20;66.55;;;37.45;;
24337;SDS011;12457;50.832;4.346;2022-11-20T12:09:53;49.47;;;29.65;;
24337;SDS011;12457;50.832;4.346;2022-11-20T12:12:24;26.20;;;14.18;;
24337;SDS011;12457;50.832;4.346;2022-11-20T12:14:56;19.60;;;11.30;;
24337;SDS011;12457;50.832;4.346;2022-11-20T12:17:23;24.42;;;11.48;;
24337;SDS011;12457;50.832;4.346;2022-11-20T12:19:49;23.30;;;11.80;;
24337;SDS011;12457;50.832;4.346;2022-11-20T12:25:03;23.75;;;12.35;;
24337;SDS011;12457;50.832;4.346;2022-11-20T12:30:12;31.92;;;14.93;;
24337;SDS011;12457;50.832;4.346;2022-11-20T12:35:23;25.67;;;12.57;;
24337;SDS011;12457;50.832;4.346;2022-11-20T12:40:44;26.40;;;11.77;;
24337;SDS011;12457;50.832;4.346;2022-11-20T12:43:26;26.25;;;12.30;;
24337;SDS011;12457;50.832;4.346;2022-11-20T12:46:39;37.22;;;21.33;;
24337;SDS011;12457;50.832;4.346;2022-11-20T12:49:26;30.30;;;12.73;;
24337;SDS011;12457;50.832;4.346;2022-11-20T12:52:20;39.45;;;17.92;;
24337;SDS011;12457;50.832;4.346;2022-11-20T12:54:58;24.05;;;13.43;;
24337;SDS011;12457;50.832;4.346;2022-11-20T13:00:35;24.33;;;10.57;;
24337;SDS011;12457;50.832;4.346;2022-11-20T13:10:50;32.95;;;17.10;;
24337;SDS011;12457;50.832;4.346;2022-11-20T13:13:26;39.50;;;20.40;;
24337;SDS011;12457;50.832;4.346;2022-11-20T13:16:02;24.08;;;12.20;;
24337;SDS011;12457;50.832;4.346;2022-11-20T13:18:36;17.35;;;8.80;;
24337;SDS011;12457;50.832;4.346;2022-11-20T13:21:16;17.98;;;7.88;;
24337;SDS011;12457;50.832;4.346;2022-11-20T13:23:47;25.13;;;12.55;;
24337;SDS011;12457;50.832;4.346;2022-11-20T13:26:22;14.98;;;8.40;;
24337;SDS011;12457;50.832;4.346;2022-11-20T13:31:49;25.92;;;11.27;;
24337;SDS011;12457;50.832;4.346;2022-11-20T13:34:24;22.45;;;10.52;;
24337;SDS011;12457;50.832;4.346;2022-11-20T13:36:53;27.63;;;13.32;;
24337;SDS011;12457;50.832;4.346;2022-11-20T13:39:27;33.97;;;14.35;;
24337;SDS011;12457;50.832;4.346;2022-11-20T13:42:40;23.17;;;13.10;;
24337;SDS011;12457;50.832;4.346;2022-11-20T13:45:00;25.45;;;14.82;;
24337;SDS011;12457;50.832;4.346;2022-11-20T13:47:33;19.98;;;9.70;;
24337;SDS011;12457;50.832;4.346;2022-11-20T13:50:00;23.88;;;11.73;;
24337;SDS011;12457;50.832;4.346;2022-11-20T13:58:05;20.35;;;11.32;;
24337;SDS011;12457;50.832;4.346;2022-11-20T14:03:51;12.63;;;6.95;;
24337;SDS011;12457;50.832;4.346;2022-11-20T14:06:23;14.73;;;9.15;;
24337;SDS011;12457;50.832;4.346;2022-11-20T14:08:55;18.38;;;11.90;;
24337;SDS011;12457;50.832;4.346;2022-11-20T14:11:22;10.38;;;5.55;;
24337;SDS011;12457;50.832;4.346;2022-11-20T14:16:26;11.65;;;5.40;;
24337;SDS011;12457;50.832;4.346;2022-11-20T14:18:54;9.20;;;4.50;;
24337;SDS011;12457;50.832;4.346;2022-11-20T14:21:25;8.35;;;5.60;;
24337;SDS011;12457;50.832;4.346;2022-11-20T14:23:52;9.05;;;5.55;;
24337;SDS011;12457;50.832;4.346;2022-11-20T14:26:44;10.60;;;4.93;;
24337;SDS011;12457;50.832;4.346;2022-11-20T14:29:14;7.50;;;4.43;;
24337;SDS011;12457;50.832;4.346;2022-11-20T14:34:16;8.45;;;4.13;;
24337;SDS011;12457;50.832;4.346;2022-11-20T14:36:45;6.55;;;4.07;;
24337;SDS011;12457;50.832;4.346;2022-11-20T14:39:11;8.38;;;4.60;;
24337;SDS011;12457;50.832;4.346;2022-11-20T14:41:50;4.97;;;3.67;;
24337;SDS011;12457;50.832;4.346;2022-11-20T14:44:17;6.40;;;4.47;;
24337;SDS011;12457;50.832;4.346;2022-11-20T14:46:44;16.20;;;7.93;;
24337;SDS011;12457;50.832;4.346;2022-11-20T14:49:10;24.73;;;13.75;;
24337;SDS011;12457;50.832;4.346;2022-11-20T14:51:37;12.45;;;6.38;;
24337;SDS011;12457;50.832;4.346;2022-11-20T14:54:17;10.20;;;5.68;;
24337;SDS011;12457;50.832;4.346;2022-11-20T14:57:02;8.82;;;5.78;;
24337;SDS011;12457;50.832;4.346;2022-11-20T14:59:30;12.65;;;5.97;;
24337;SDS011;12457;50.832;4.346;2022-11-20T15:01:59;7.00;;;5.53;;
24337;SDS011;12457;50.832;4.346;2022-11-20T15:04:30;8.40;;;4.13;;
24337;SDS011;12457;50.832;4.346;2022-11-20T15:06:59;7.00;;;4.38;;
24337;SDS011;12457;50.832;4.346;2022-11-20T15:09:25;9.90;;;4.40;;
24337;SDS011;12457;50.832;4.346;2022-11-20T15:11:57;8.18;;;3.88;;
24337;SDS011;12457;50.832;4.346;2022-11-20T15:14:26;6.30;;;4.15;;
24337;SDS011;12457;50.832;4.346;2022-11-20T15:16:53;18.45;;;5.50;;
24337;SDS011;12457;50.832;4.346;2022-11-20T15:19:20;10.45;;;4.88;;
24337;SDS011;12457;50.832;4.346;2022-11-20T15:21:47;15.40;;;8.57;;
24337;SDS011;12457;50.832;4.346;2022-11-20T15:24:13;10.40;;;5.80;;
24337;SDS011;12457;50.832;4.346;2022-11-20T15:26:39;9.65;;;5.25;;
24337;SDS011;12457;50.832;4.346;2022-11-20T15:29:05;9.27;;;5.45;;
24337;SDS011;12457;50.832;4.346;2022-11-20T15:31:37;11.57;;;7.25;;
24337;SDS011;12457;50.832;4.346;2022-11-20T15:34:11;9.35;;;5.30;;
24337;SDS011;12457;50.832;4.346;2022-11-20T15:36:39;15.38;;;6.45;;
24337;SDS011;12457;50.832;4.346;2022-11-20T15:39:05;13.00;;;6.97;;
24337;SDS011;12457;50.832;4.346;2022-11-20T15:41:34;10.77;;;6.45;;
24337;SDS011;12457;50.832;4.346;2022-11-20T15:44:00;8.75;;;5.85;;
24337;SDS011;12457;50.832;4.346;2022-11-20T15:46:27;8.85;;;5.80;;
24337;SDS011;12457;50.832;4.346;2022-11-20T15:48:54;8.68;;;5.70;;
24337;SDS011;12457;50.832;4.346;2022-11-20T15:51:29;12.52;;;6.63;;
24337;SDS011;12457;50.832;4.346;2022-11-20T15:53:55;13.50;;;6.35;;
24337;SDS011;12457;50.832;4.346;2022-11-20T15:56:21;14.98;;;6.75;;
24337;SDS011;12457;50.832;4.346;2022-11-20T15:58:46;15.38;;;6.57;;
24337;SDS011;12457;50.832;4.346;2022-11-20T16:01:13;22.20;;;8.63;;
24337;SDS011;12457;50.832;4.346;2022-11-20T16:03:41;19.30;;;8.82;;
24337;SDS011;12457;50.832;4.346;2022-11-20T16:06:07;22.42;;;7.22;;
24337;SDS011;12457;50.832;4.346;2022-11-20T16:08:33;15.77;;;6.38;;